createdAt,value
2022-10-11T00:01:13.724Z,4.77
2022-10-11T00:03:42.494Z,5.20
2022-10-11T00:06:11.334Z,4.53
2022-10-11T00:08:39.991Z,5.00
2022-10-11T00:11:09.989Z,4.97
2022-10-11T00:13:38.692Z,5.17
2022-10-11T00:16:14.258Z,4.83
2022-10-11T00:18:43.888Z,4.73
2022-10-11T00:21:18.576Z,4.60
2022-10-11T00:23:47.263Z,4.63
2022-10-11T00:26:16.331Z,5.10
2022-10-11T00:28:45.083Z,5.30
2022-10-11T00:31:17.112Z,5.33
2022-10-11T00:33:46.003Z,5.20
2022-10-11T00:36:17.084Z,4.90
2022-10-11T00:38:46.734Z,4.93
2022-10-11T00:41:16.477Z,5.03
2022-10-11T00:43:45.679Z,4.77
2022-10-11T00:46:33.477Z,4.67
2022-10-11T00:49:08.565Z,4.80
2022-10-11T00:51:49.472Z,4.57
2022-10-11T00:54:24.206Z,5.50
2022-10-11T00:57:00.785Z,4.30
2022-10-11T00:59:36.058Z,5.37
2022-10-11T01:02:07.927Z,5.63
2022-10-11T01:04:36.770Z,5.83
2022-10-11T01:07:05.703Z,6.13
2022-10-11T01:09:35.346Z,5.50
2022-10-11T01:12:13.399Z,6.23
2022-10-11T01:15:16.754Z,6.33
2022-10-11T01:18:00.804Z,6.80
2022-10-11T01:20:41.703Z,6.13
2022-10-11T01:24:08.701Z,5.87
2022-10-11T01:27:38.101Z,5.53
2022-10-11T01:30:25.631Z,6.13
2022-10-11T01:33:19.902Z,6.57
2022-10-11T01:36:06.569Z,6.67
2022-10-11T01:38:43.128Z,6.30
2022-10-11T01:41:18.367Z,6.40
2022-10-11T01:43:49.736Z,6.93
2022-10-11T01:46:21.602Z,6.73
2022-10-11T01:48:52.800Z,6.83
2022-10-11T01:51:24.820Z,6.50
2022-10-11T01:54:17.887Z,6.10
2022-10-11T01:57:15.631Z,5.87
2022-10-11T02:00:00.193Z,6.50
2022-10-11T02:03:00.229Z,5.97
2022-10-11T02:05:39.968Z,5.60
2022-10-11T02:08:19.527Z,5.97
2022-10-11T02:10:55.745Z,6.40
2022-10-11T02:13:33.359Z,5.23
2022-10-11T02:16:11.045Z,6.43
2022-10-11T02:18:46.876Z,6.10
2022-10-11T02:21:20.798Z,6.20
2022-10-11T02:23:56.551Z,5.87
2022-10-11T02:26:31.805Z,6.23
2022-10-11T02:29:06.355Z,6.60
2022-10-11T02:31:37.728Z,6.13
2022-10-11T02:34:16.280Z,6.30
2022-10-11T02:36:57.140Z,6.70
2022-10-11T02:39:32.727Z,7.17
2022-10-11T02:42:08.398Z,6.60
2022-10-11T02:44:44.230Z,7.33
2022-10-11T02:47:14.056Z,7.30
2022-10-11T02:49:44.134Z,8.27
2022-10-11T02:52:12.787Z,8.90
2022-10-11T02:54:41.417Z,8.67
2022-10-11T02:57:10.108Z,8.43
2022-10-11T02:59:38.881Z,9.83
2022-10-11T03:02:07.838Z,9.63
2022-10-11T03:04:36.813Z,9.40
2022-10-11T03:07:07.057Z,7.33
2022-10-11T03:09:35.739Z,7.73
2022-10-11T03:12:04.552Z,6.70
2022-10-11T03:14:33.301Z,7.30
2022-10-11T03:17:23.658Z,6.33
2022-10-11T03:19:50.844Z,5.50
2022-10-11T03:22:20.882Z,4.73
2022-10-11T03:24:49.590Z,5.33
2022-10-11T03:27:18.554Z,4.27
2022-10-11T03:29:47.212Z,3.87
2022-10-11T03:32:15.940Z,4.03
2022-10-11T03:34:44.542Z,3.80
2022-10-11T03:37:13.176Z,3.60
2022-10-11T03:39:43.283Z,3.83
2022-10-11T03:42:12.055Z,3.37
2022-10-11T03:44:41.788Z,3.07
2022-10-11T03:47:10.701Z,3.07
2022-10-11T03:49:43.392Z,2.87
2022-10-11T03:52:12.889Z,2.47
2022-10-11T03:54:43.176Z,2.23
2022-10-11T03:57:11.855Z,2.23
2022-10-11T03:59:40.496Z,2.40
2022-10-11T04:02:09.244Z,2.70
2022-10-11T04:04:37.974Z,2.77
2022-10-11T04:07:06.694Z,2.47
2022-10-11T04:09:35.619Z,2.13
2022-10-11T04:12:06.031Z,2.73
2022-10-11T04:14:34.713Z,1.90
2022-10-11T04:17:03.262Z,2.50
2022-10-11T04:19:31.848Z,5.10
2022-10-11T04:22:00.479Z,3.63
2022-10-11T04:24:29.274Z,4.57
2022-10-11T04:26:58.003Z,4.20
2022-10-11T04:29:32.409Z,3.20
2022-10-11T04:32:01.440Z,2.60
2022-10-11T04:34:30.168Z,2.10
2022-10-11T04:36:59.013Z,2.07
2022-10-11T04:39:28.561Z,2.13
2022-10-11T04:41:57.110Z,1.97
2022-10-11T04:44:27.408Z,1.83
2022-10-11T04:46:56.098Z,2.83
2022-10-11T04:49:25.294Z,1.60
2022-10-11T04:51:54.254Z,1.90
2022-10-11T04:54:23.208Z,1.80
2022-10-11T04:56:51.926Z,1.57
2022-10-11T04:59:50.003Z,2.00
2022-10-11T05:02:19.220Z,1.97
2022-10-11T05:04:48.076Z,1.90
2022-10-11T05:07:16.771Z,1.87
2022-10-11T05:09:45.521Z,1.97
2022-10-11T05:12:14.258Z,3.67
2022-10-11T05:14:42.823Z,3.40
2022-10-11T05:17:12.839Z,2.23
2022-10-11T05:19:41.471Z,2.40
2022-10-11T05:22:10.342Z,1.90
2022-10-11T05:24:39.069Z,1.70
2022-10-11T05:27:07.883Z,2.10
2022-10-11T05:29:36.522Z,2.30
2022-10-11T05:32:05.624Z,1.67
2022-10-11T05:34:35.617Z,2.17
2022-10-11T05:37:04.170Z,2.00
2022-10-11T05:39:32.984Z,1.87
2022-10-11T05:42:01.636Z,2.10
2022-10-11T05:44:30.227Z,2.30
2022-10-11T05:46:58.826Z,2.03
2022-10-11T05:49:27.779Z,2.57
2022-10-11T05:51:57.869Z,2.47
2022-10-11T05:54:26.618Z,2.50
2022-10-11T05:56:55.237Z,2.03
2022-10-11T05:59:23.833Z,2.40
2022-10-11T06:01:52.661Z,2.30
2022-10-11T06:04:21.409Z,2.30
2022-10-11T06:06:49.966Z,2.30
2022-10-11T06:09:20.060Z,2.40
2022-10-11T06:11:49.498Z,2.30
2022-10-11T06:14:18.367Z,2.30
2022-10-11T06:16:47.013Z,2.07
2022-10-11T06:19:15.737Z,2.90
2022-10-11T06:21:45.317Z,2.03
2022-10-11T06:24:14.062Z,3.03
2022-10-11T06:26:44.040Z,2.50
2022-10-11T06:29:12.668Z,2.77
2022-10-11T06:31:41.288Z,3.00
2022-10-11T06:34:09.913Z,5.67
2022-10-11T06:36:38.546Z,2.80
2022-10-11T06:39:07.528Z,3.03
2022-10-11T06:41:36.454Z,3.30
2022-10-11T06:44:09.695Z,2.70
2022-10-11T06:46:42.836Z,3.83
2022-10-11T06:49:12.178Z,5.27
2022-10-11T06:51:40.887Z,5.80
2022-10-11T06:54:09.465Z,5.47
2022-10-11T06:56:38.420Z,4.50
2022-10-11T06:59:08.705Z,4.13
2022-10-11T07:01:37.347Z,2.53
2022-10-11T07:04:06.678Z,2.40
2022-10-11T07:06:40.449Z,2.60
2022-10-11T07:09:09.926Z,2.10
2022-10-11T07:11:38.793Z,2.30
2022-10-11T07:14:11.489Z,2.47
2022-10-11T07:16:40.075Z,2.73
2022-10-11T07:19:08.757Z,2.50
2022-10-11T07:21:37.575Z,2.73
2022-10-11T07:24:07.369Z,2.70
2022-10-11T07:26:38.899Z,2.43
2022-10-11T07:29:11.464Z,2.73
2022-10-11T07:31:42.929Z,2.57
2022-10-11T07:34:11.895Z,2.50
2022-10-11T07:36:40.802Z,2.47
2022-10-11T07:39:10.111Z,2.87
2022-10-11T07:41:44.565Z,2.80
2022-10-11T07:44:15.081Z,2.63
2022-10-11T07:46:43.852Z,3.43
2022-10-11T07:49:12.451Z,2.83
2022-10-11T07:51:41.046Z,3.20
2022-10-11T07:54:09.887Z,3.03
2022-10-11T07:56:40.245Z,2.73
2022-10-11T07:59:08.976Z,3.10
2022-10-11T08:01:39.143Z,2.63
2022-10-11T08:04:07.887Z,2.67
2022-10-11T08:06:37.378Z,2.70
2022-10-11T08:09:06.762Z,2.23
2022-10-11T08:11:38.471Z,2.63
2022-10-11T08:14:11.328Z,2.17
2022-10-11T08:16:41.699Z,2.97
2022-10-11T08:19:11.885Z,2.30
2022-10-11T08:21:40.699Z,2.67
2022-10-11T08:24:10.114Z,2.77
2022-10-11T08:26:38.750Z,2.87
2022-10-11T08:29:07.571Z,2.40
2022-10-11T08:31:36.770Z,2.73
2022-10-11T08:34:06.905Z,2.57
2022-10-11T08:36:35.747Z,2.70
2022-10-11T08:39:05.349Z,2.40
2022-10-11T08:41:43.165Z,2.67
2022-10-11T08:44:58.699Z,3.00
2022-10-11T08:47:35.102Z,2.77
2022-10-11T08:50:08.918Z,2.70
2022-10-11T08:52:49.773Z,2.20
2022-10-11T08:55:27.424Z,2.33
2022-10-11T08:57:57.965Z,2.03
2022-10-11T09:00:34.157Z,2.23
2022-10-11T09:03:22.855Z,2.40
2022-10-11T09:06:15.026Z,2.77
2022-10-11T09:09:06.185Z,2.10
2022-10-11T09:11:51.500Z,1.93
2022-10-11T09:15:24.905Z,2.10
2022-10-11T09:18:17.580Z,1.83
2022-10-11T09:21:03.140Z,2.00
2022-10-11T09:23:57.581Z,2.07
2022-10-11T09:26:33.064Z,1.90
2022-10-11T09:29:16.479Z,1.70
2022-10-11T09:31:53.314Z,1.73
2022-10-11T09:34:27.388Z,2.10
2022-10-11T09:37:12.610Z,1.97
2022-10-11T09:39:49.180Z,2.27
2022-10-11T09:42:17.795Z,1.93
2022-10-11T09:44:50.786Z,1.60
2022-10-11T09:47:25.782Z,1.70
2022-10-11T09:50:01.679Z,1.73
2022-10-11T09:52:32.021Z,1.93
2022-10-11T09:55:03.577Z,1.67
2022-10-11T09:57:37.077Z,2.00
2022-10-11T10:00:20.854Z,1.77
2022-10-11T10:02:52.344Z,1.37
2022-10-11T10:05:23.943Z,1.50
2022-10-11T10:08:22.539Z,1.60
2022-10-11T10:11:02.370Z,1.97
2022-10-11T10:13:43.314Z,1.77
2022-10-11T10:16:27.235Z,2.00
2022-10-11T10:18:59.726Z,1.63
2022-10-11T10:21:32.789Z,1.77
2022-10-11T10:24:08.757Z,1.53
2022-10-11T10:26:37.488Z,1.57
2022-10-11T10:29:18.712Z,1.53
2022-10-11T10:35:13.547Z,1.70
2022-10-11T10:37:49.905Z,2.00
2022-10-11T10:40:27.041Z,1.47
2022-10-11T10:42:55.772Z,1.43
2022-10-11T10:45:35.193Z,2.07
2022-10-11T10:48:27.572Z,1.53
2022-10-11T10:51:05.968Z,1.60
2022-10-11T10:53:43.694Z,1.20
2022-10-11T10:56:20.646Z,1.40
2022-10-11T10:59:15.360Z,2.00
2022-10-11T11:02:11.181Z,1.63
2022-10-11T11:05:02.626Z,1.30
2022-10-11T11:07:42.061Z,1.70
2022-10-11T11:10:20.418Z,1.60
2022-10-11T11:13:05.107Z,1.50
2022-10-11T11:15:44.628Z,1.67
2022-10-11T11:18:30.285Z,1.73
2022-10-11T11:21:23.680Z,1.60
2022-10-11T11:24:09.614Z,1.47
2022-10-11T11:26:49.042Z,1.30
2022-10-11T11:29:39.528Z,1.77
2022-10-11T11:32:22.809Z,1.43
2022-10-11T11:35:01.875Z,1.40
2022-10-11T11:37:35.826Z,1.43
2022-10-11T11:40:15.223Z,1.40
2022-10-11T11:42:50.301Z,1.90
2022-10-11T11:45:26.107Z,1.70
2022-10-11T11:48:03.773Z,1.30
2022-10-11T11:50:40.244Z,1.50
2022-10-11T11:53:17.563Z,1.40
2022-10-11T11:55:54.599Z,1.30
2022-10-11T11:58:37.117Z,1.57
2022-10-11T12:01:30.930Z,1.37
2022-10-11T12:04:07.108Z,1.50
2022-10-11T12:06:52.399Z,1.50
2022-10-11T12:09:28.176Z,2.00
2022-10-11T12:12:01.425Z,2.00
2022-10-11T12:14:41.295Z,1.57
2022-10-11T12:17:18.894Z,1.20
2022-10-11T12:20:24.227Z,1.50
2022-10-11T12:22:58.400Z,1.10
2022-10-11T12:26:19.249Z,1.60
2022-10-11T12:29:46.661Z,2.00
2022-10-11T12:32:57.470Z,1.40
2022-10-11T12:36:07.343Z,1.30
2022-10-11T12:38:40.171Z,1.37
2022-10-11T12:41:53.661Z,1.40
2022-10-11T12:44:26.358Z,1.47
2022-10-11T12:47:34.083Z,1.23
2022-10-11T12:50:20.933Z,1.50
2022-10-11T12:53:03.025Z,1.60
2022-10-11T12:55:51.403Z,1.90
2022-10-11T12:58:40.547Z,1.20
2022-10-11T13:01:26.689Z,1.40
2022-10-11T13:04:08.105Z,1.20
2022-10-11T13:06:48.976Z,1.50
2022-10-11T13:09:28.661Z,1.33
2022-10-11T13:12:04.249Z,1.20
2022-10-11T13:14:38.435Z,1.50
2022-10-11T13:17:17.959Z,1.50
2022-10-11T13:19:47.052Z,1.30
2022-10-11T13:22:21.755Z,1.20
2022-10-11T13:24:50.702Z,1.50
2022-10-11T13:27:24.513Z,1.40
2022-10-11T13:29:56.781Z,1.30
2022-10-11T13:32:28.684Z,1.43
2022-10-11T13:35:01.793Z,1.17
2022-10-11T13:37:42.169Z,1.30
2022-10-11T13:40:16.051Z,1.10
2022-10-11T13:42:45.463Z,1.40
2022-10-11T13:45:17.490Z,1.50
2022-10-11T13:47:48.328Z,1.57
2022-10-11T13:50:31.918Z,2.03
2022-10-11T13:53:05.229Z,1.70
2022-10-11T13:55:37.451Z,1.27
2022-10-11T13:58:19.073Z,1.50
2022-10-11T14:00:57.248Z,1.30
2022-10-11T14:03:40.152Z,1.37
2022-10-11T14:06:09.960Z,1.30
2022-10-11T14:08:46.065Z,1.30
2022-10-11T14:11:16.933Z,2.10
2022-10-11T14:13:47.914Z,1.80
2022-10-11T14:16:32.099Z,1.57
2022-10-11T14:19:12.762Z,1.67
2022-10-11T14:21:54.046Z,2.00
2022-10-11T14:24:24.773Z,4.77
2022-10-11T14:26:57.725Z,4.97
2022-10-11T14:29:30.727Z,2.50
2022-10-11T14:32:05.850Z,3.60
2022-10-11T14:34:36.490Z,1.70
2022-10-11T14:37:05.416Z,1.27
2022-10-11T14:39:35.629Z,1.07
2022-10-11T14:42:04.915Z,1.27
2022-10-11T14:44:34.484Z,1.50
2022-10-11T14:47:06.673Z,1.80
2022-10-11T14:49:38.506Z,4.17
2022-10-11T14:52:08.987Z,3.63
2022-10-11T14:54:39.482Z,3.30
2022-10-11T14:57:13.706Z,2.43
2022-10-11T14:59:42.552Z,2.53
2022-10-11T15:02:13.680Z,2.43
2022-10-11T15:04:42.337Z,2.60
2022-10-11T15:07:13.991Z,2.30
2022-10-11T15:09:44.366Z,1.83
2022-10-11T15:12:13.042Z,2.80
2022-10-11T15:14:41.766Z,4.60
2022-10-11T15:17:12.931Z,4.60
2022-10-11T15:19:41.624Z,8.30
2022-10-11T15:22:10.463Z,9.10
2022-10-11T15:24:39.352Z,9.63
2022-10-11T15:27:10.519Z,5.97
2022-10-11T15:29:39.176Z,6.57
2022-10-11T15:32:08.446Z,5.47
2022-10-11T15:34:37.172Z,4.00
2022-10-11T15:37:05.755Z,3.73
2022-10-11T15:39:34.438Z,3.50
2022-10-11T15:42:03.213Z,5.53
2022-10-11T15:44:34.650Z,16.87
2022-10-11T15:47:05.458Z,3.97
2022-10-11T15:49:37.211Z,4.17
2022-10-11T15:52:07.427Z,3.30
2022-10-11T15:54:37.175Z,3.43
2022-10-11T15:57:06.863Z,3.33
2022-10-11T15:59:36.962Z,3.80
2022-10-11T16:02:06.461Z,3.90
2022-10-11T16:04:35.376Z,4.70
2022-10-11T16:07:04.483Z,3.60
2022-10-11T16:09:33.573Z,4.33
2022-10-11T16:12:02.366Z,3.90
2022-10-11T16:14:31.603Z,5.20
2022-10-11T16:17:03.424Z,4.80
2022-10-11T16:19:32.489Z,6.20
2022-10-11T16:22:01.305Z,6.87
2022-10-11T16:24:29.998Z,16.53
2022-10-11T16:26:58.650Z,9.80
2022-10-11T16:29:27.835Z,3.80
2022-10-11T16:31:56.501Z,3.93
2022-10-11T16:34:26.940Z,4.67
2022-10-11T16:36:55.550Z,5.40
2022-10-11T16:39:24.404Z,6.10
2022-10-11T16:41:53.156Z,6.93
2022-10-11T16:44:25.361Z,7.93
2022-10-11T16:46:54.086Z,12.10
2022-10-11T16:49:26.997Z,10.43
2022-10-11T16:51:59.344Z,11.07
2022-10-11T16:54:30.329Z,11.90
2022-10-11T16:57:01.566Z,9.10
2022-10-11T16:59:33.096Z,8.40
2022-10-11T17:02:05.132Z,7.93
2022-10-11T17:04:36.601Z,7.67
2022-10-11T17:07:05.344Z,6.53
2022-10-11T17:09:34.172Z,7.03
2022-10-11T17:12:02.887Z,7.40
2022-10-11T17:14:32.298Z,8.03
2022-10-11T17:17:01.329Z,11.40
2022-10-11T17:19:34.460Z,12.40
2022-10-11T17:22:05.539Z,17.40
2022-10-11T17:24:38.537Z,11.47
2022-10-11T17:27:10.301Z,12.07
2022-10-11T17:29:40.738Z,10.37
2022-10-11T17:32:11.180Z,9.33
2022-10-11T17:34:40.797Z,8.43
2022-10-11T17:37:12.941Z,8.40
2022-10-11T17:39:42.647Z,7.33
2022-10-11T17:42:11.974Z,7.73
2022-10-11T17:44:43.437Z,7.13
2022-10-11T17:47:16.073Z,7.70
2022-10-11T17:49:46.066Z,8.53
2022-10-11T17:52:16.693Z,7.00
2022-10-11T17:54:47.307Z,8.03
2022-10-11T17:57:16.802Z,6.93
2022-10-11T17:59:46.471Z,6.13
2022-10-11T18:02:15.303Z,6.50
2022-10-11T18:04:44.919Z,6.83
2022-10-11T18:07:15.589Z,6.60
2022-10-11T18:09:44.895Z,9.37
2022-10-11T18:12:15.220Z,7.87
2022-10-11T18:14:44.698Z,7.27
2022-10-11T18:17:13.720Z,6.77
2022-10-11T18:19:42.969Z,6.60
2022-10-11T18:22:12.412Z,6.90
2022-10-11T18:24:43.143Z,6.60
2022-10-11T18:27:12.380Z,5.57
2022-10-11T18:29:41.598Z,4.73
2022-10-11T18:32:10.530Z,5.50
2022-10-11T18:34:39.379Z,5.60
2022-10-11T18:37:08.732Z,5.60
2022-10-11T18:39:37.714Z,5.00
2022-10-11T18:42:08.230Z,5.10
2022-10-11T18:44:37.247Z,4.30
2022-10-11T18:47:05.952Z,4.30
2022-10-11T18:49:34.566Z,4.53
2022-10-11T18:52:03.163Z,4.23
2022-10-11T18:54:32.150Z,4.27
2022-10-11T18:57:00.788Z,3.90
2022-10-11T18:59:33.346Z,4.20
2022-10-11T19:02:04.128Z,4.10
2022-10-11T19:04:34.404Z,4.33
2022-10-11T19:07:03.346Z,4.13
2022-10-11T19:09:32.406Z,4.97
2022-10-11T19:12:01.193Z,4.33
2022-10-11T19:14:31.615Z,3.60
2022-10-11T19:17:00.375Z,3.60
2022-10-11T19:19:30.948Z,3.93
2022-10-11T19:22:00.443Z,3.97
2022-10-11T19:24:31.511Z,3.10
2022-10-11T19:27:02.724Z,3.30
2022-10-11T19:29:34.538Z,3.10
2022-10-11T19:32:04.585Z,2.80
2022-10-11T19:34:33.287Z,2.90
2022-10-11T19:37:03.476Z,3.10
2022-10-11T19:39:32.641Z,3.23
2022-10-11T19:42:02.083Z,2.97
2022-10-11T19:44:35.789Z,2.97
2022-10-11T19:47:07.650Z,8.60
2022-10-11T19:49:36.308Z,16.67
2022-10-11T19:52:05.157Z,14.10
2022-10-11T19:54:34.008Z,8.57
2022-10-11T19:57:02.702Z,7.27
2022-10-11T19:59:32.830Z,5.33
2022-10-11T20:02:01.676Z,3.90
2022-10-11T20:07:18.896Z,3.17
2022-10-11T20:09:47.494Z,3.03
2022-10-11T20:12:16.198Z,2.70
2022-10-11T20:14:46.288Z,2.60
2022-10-11T20:17:16.187Z,2.63
2022-10-11T20:19:44.837Z,2.40
2022-10-11T20:22:13.569Z,2.80
2022-10-11T20:24:42.109Z,3.17
2022-10-11T20:27:10.751Z,2.77
2022-10-11T20:29:39.363Z,2.60
2022-10-11T20:32:09.348Z,2.20
2022-10-11T20:34:39.523Z,2.43
2022-10-11T20:37:08.144Z,3.17
2022-10-11T20:39:37.037Z,2.77
2022-10-11T20:42:05.836Z,2.53
2022-10-11T20:44:34.549Z,2.00
2022-10-11T20:47:04.343Z,2.03
2022-10-11T20:49:34.678Z,2.17
2022-10-11T20:52:03.256Z,2.00
2022-10-11T20:54:34.226Z,2.20
2022-10-11T20:57:03.100Z,2.00
2022-10-11T20:59:31.774Z,1.80
2022-10-11T21:02:00.418Z,2.00
2022-10-11T21:04:29.203Z,1.87
2022-10-11T21:06:59.225Z,2.20
2022-10-11T21:09:27.860Z,2.17
2022-10-11T21:11:56.572Z,2.17
2022-10-11T21:14:25.370Z,2.00
2022-10-11T21:16:54.018Z,2.20
2022-10-11T21:19:22.605Z,1.93
2022-10-11T21:21:53.855Z,1.93
2022-10-11T21:24:24.390Z,1.97
2022-10-11T21:26:56.941Z,2.40
2022-10-11T21:29:28.412Z,2.10
2022-10-11T21:31:57.036Z,2.10
2022-10-11T21:34:25.727Z,2.00
2022-10-11T21:36:54.323Z,2.20
2022-10-11T21:39:24.492Z,2.30
2022-10-11T21:41:53.180Z,2.13
2022-10-11T21:44:21.837Z,1.90
2022-10-11T21:47:07.366Z,2.00
2022-10-11T21:49:36.166Z,1.70
2022-10-11T21:52:05.953Z,1.87
2022-10-11T21:54:36.119Z,1.63
2022-10-11T21:57:04.808Z,1.90
2022-10-11T21:59:33.546Z,1.90
2022-10-11T22:02:02.578Z,2.10
2022-10-11T22:04:31.455Z,2.07
2022-10-11T22:07:00.317Z,1.90
2022-10-11T22:09:29.904Z,1.93
2022-10-11T22:12:00.046Z,2.10
2022-10-11T22:14:29.593Z,2.23
2022-10-11T22:16:58.625Z,1.93
2022-10-11T22:19:27.370Z,2.17
2022-10-11T22:21:56.006Z,1.93
2022-10-11T22:24:25.755Z,2.13
2022-10-11T22:26:54.392Z,1.80
2022-10-11T22:29:24.473Z,1.80
2022-10-11T22:31:53.061Z,1.63
2022-10-11T22:34:21.683Z,1.73
2022-10-11T22:36:50.317Z,1.90
2022-10-11T22:39:19.054Z,2.10
2022-10-11T22:41:47.764Z,1.87
2022-10-11T22:44:16.880Z,1.73
2022-10-11T22:46:46.952Z,1.90
2022-10-11T22:49:15.616Z,2.10
2022-10-11T22:51:44.484Z,1.80
2022-10-11T22:54:13.564Z,2.10
2022-10-11T22:56:42.232Z,1.70
2022-10-11T22:59:11.054Z,2.10
2022-10-11T23:01:39.666Z,2.03
2022-10-11T23:04:09.688Z,2.00
2022-10-11T23:06:38.361Z,2.10
2022-10-11T23:09:07.268Z,2.00
2022-10-11T23:11:35.894Z,1.70
2022-10-11T23:14:04.671Z,1.90
2022-10-11T23:16:33.436Z,1.90
2022-10-11T23:19:04.240Z,1.70
2022-10-11T23:21:34.567Z,2.00
2022-10-11T23:24:03.124Z,2.20
2022-10-11T23:26:31.712Z,1.77
2022-10-11T23:29:00.354Z,2.00
2022-10-11T23:31:28.992Z,1.77
2022-10-11T23:33:57.643Z,1.70
2022-10-11T23:36:27.616Z,1.67
2022-10-11T23:39:00.239Z,2.17
2022-10-11T23:41:30.911Z,2.00
2022-10-11T23:43:59.820Z,1.80
2022-10-11T23:46:28.449Z,1.67
2022-10-11T23:48:57.107Z,1.93
2022-10-11T23:51:25.810Z,1.70
2022-10-11T23:53:54.522Z,1.80
2022-10-11T23:56:24.715Z,1.80
2022-10-11T23:58:53.486Z,1.80
